createdAt,value
2023-02-06T00:00:53.650Z,100.00
2023-02-06T00:01:55.967Z,100.00
2023-02-06T00:02:59.270Z,100.00
2023-02-06T00:04:02.663Z,100.00
2023-02-06T00:05:07.353Z,100.00
2023-02-06T00:06:11.870Z,100.00
2023-02-06T00:07:17.282Z,100.00
2023-02-06T00:08:19.820Z,100.00
2023-02-06T00:09:23.234Z,100.00
2023-02-06T00:10:26.458Z,100.00
2023-02-06T00:11:30.178Z,100.00
2023-02-06T00:12:33.742Z,100.00
2023-02-06T00:13:36.872Z,100.00
2023-02-06T00:14:40.010Z,100.00
2023-02-06T00:15:43.430Z,100.00
2023-02-06T00:16:46.810Z,100.00
2023-02-06T00:17:48.959Z,100.00
2023-02-06T00:18:54.016Z,100.00
2023-02-06T00:19:58.485Z,100.00
2023-02-06T00:21:02.648Z,100.00
2023-02-06T00:22:07.381Z,100.00
2023-02-06T00:23:11.536Z,100.00
2023-02-06T00:24:14.802Z,100.00
2023-02-06T00:25:18.105Z,100.00
2023-02-06T00:26:22.959Z,100.00
2023-02-06T00:27:27.399Z,100.00
2023-02-06T00:28:30.773Z,100.00
2023-02-06T00:29:34.423Z,100.00
2023-02-06T00:30:37.744Z,100.00
2023-02-06T00:31:42.429Z,100.00
2023-02-06T00:32:46.949Z,100.00
2023-02-06T00:33:54.395Z,100.00
2023-02-06T00:34:57.900Z,100.00
2023-02-06T00:36:00.975Z,100.00
2023-02-06T00:37:05.641Z,100.00
2023-02-06T00:38:10.417Z,100.00
2023-02-06T00:39:14.002Z,100.00
2023-02-06T00:40:16.993Z,100.00
2023-02-06T00:41:20.652Z,100.00
2023-02-06T00:42:24.211Z,100.00
2023-02-06T00:43:27.718Z,100.00
2023-02-06T00:44:34.775Z,100.00
2023-02-06T00:45:38.934Z,100.00
2023-02-06T00:46:43.190Z,100.00
2023-02-06T00:47:45.695Z,100.00
2023-02-06T00:48:48.792Z,100.00
2023-02-06T00:49:53.061Z,100.00
2023-02-06T00:50:56.694Z,100.00
2023-02-06T00:52:01.113Z,100.00
2023-02-06T00:53:04.689Z,100.00
2023-02-06T00:54:09.558Z,100.00
2023-02-06T00:55:13.166Z,100.00
2023-02-06T00:56:16.566Z,100.00
2023-02-06T00:57:21.658Z,100.00
2023-02-06T00:58:26.377Z,100.00
2023-02-06T00:59:29.694Z,100.00
2023-02-06T01:00:35.807Z,100.00
2023-02-06T01:01:40.897Z,100.00
2023-02-06T01:02:44.220Z,100.00
2023-02-06T01:03:46.948Z,100.00
2023-02-06T01:04:50.237Z,100.00
2023-02-06T01:05:53.542Z,100.00
2023-02-06T01:06:57.987Z,100.00
2023-02-06T01:08:04.047Z,100.00
2023-02-06T01:09:07.594Z,100.00
2023-02-06T01:10:12.314Z,100.00
2023-02-06T01:11:17.365Z,100.00
2023-02-06T01:12:22.556Z,100.00
2023-02-06T01:13:27.070Z,100.00
2023-02-06T01:14:32.926Z,100.00
2023-02-06T01:15:36.039Z,100.00
2023-02-06T01:16:41.768Z,100.00
2023-02-06T01:17:45.909Z,100.00
2023-02-06T01:18:51.592Z,100.00
2023-02-06T01:19:56.951Z,100.00
2023-02-06T01:21:00.312Z,100.00
2023-02-06T01:22:03.865Z,100.00
2023-02-06T01:23:06.887Z,100.00
2023-02-06T01:24:10.351Z,100.00
2023-02-06T01:25:16.832Z,100.00
2023-02-06T01:26:22.993Z,100.00
2023-02-06T01:27:27.030Z,100.00
2023-02-06T01:29:35.710Z,100.00
2023-02-06T01:30:38.843Z,100.00
2023-02-06T01:31:42.265Z,100.00
2023-02-06T01:32:44.545Z,100.00
2023-02-06T01:33:48.666Z,100.00
2023-02-06T01:34:54.180Z,100.00
2023-02-06T01:35:58.202Z,100.00
2023-02-06T01:37:01.245Z,100.00
2023-02-06T01:38:04.899Z,100.00
2023-02-06T01:39:09.758Z,100.00
2023-02-06T01:40:16.631Z,100.00
2023-02-06T01:41:21.007Z,100.00
2023-02-06T01:42:24.496Z,100.00
2023-02-06T01:43:32.036Z,100.00
2023-02-06T01:44:36.269Z,100.00
2023-02-06T01:45:44.312Z,100.00
2023-02-06T01:46:52.291Z,100.00
2023-02-06T01:48:00.596Z,100.00
2023-02-06T01:49:06.063Z,100.00
2023-02-06T01:50:14.998Z,100.00
2023-02-06T01:51:23.517Z,100.00
2023-02-06T01:52:33.109Z,100.00
2023-02-06T01:53:36.512Z,100.00
2023-02-06T01:54:43.946Z,100.00
2023-02-06T01:55:49.444Z,100.00
2023-02-06T01:56:54.434Z,100.00
2023-02-06T01:58:00.318Z,100.00
2023-02-06T01:59:05.518Z,100.00
2023-02-06T02:00:09.545Z,100.00
2023-02-06T02:01:16.276Z,100.00
2023-02-06T02:02:19.912Z,100.00
2023-02-06T02:03:23.690Z,100.00
2023-02-06T02:04:28.879Z,100.00
2023-02-06T02:05:35.249Z,100.00
2023-02-06T02:06:41.411Z,100.00
2023-02-06T02:07:47.458Z,100.00
2023-02-06T02:08:52.903Z,100.00
2023-02-06T02:09:56.435Z,100.00
2023-02-06T02:11:02.968Z,100.00
2023-02-06T02:12:06.982Z,100.00
2023-02-06T02:13:10.775Z,100.00
2023-02-06T02:14:14.932Z,100.00
2023-02-06T02:15:18.440Z,100.00
2023-02-06T02:16:24.224Z,100.00
2023-02-06T02:17:30.647Z,100.00
2023-02-06T02:18:40.442Z,100.00
2023-02-06T02:19:51.252Z,100.00
2023-02-06T02:21:09.670Z,100.00
2023-02-06T02:22:18.916Z,100.00
2023-02-06T02:23:27.165Z,100.00
2023-02-06T02:24:32.440Z,100.00
2023-02-06T02:25:42.034Z,100.00
2023-02-06T02:27:02.217Z,100.00
2023-02-06T02:28:11.917Z,100.00
2023-02-06T02:29:16.950Z,100.00
2023-02-06T02:30:22.486Z,100.00
2023-02-06T02:31:33.817Z,100.00
2023-02-06T02:32:48.714Z,100.00
2023-02-06T02:34:01.624Z,100.00
2023-02-06T02:35:07.188Z,100.00
2023-02-06T02:36:15.485Z,100.00
2023-02-06T02:37:32.780Z,100.00
2023-02-06T02:38:38.269Z,100.00
2023-02-06T02:39:49.492Z,100.00
2023-02-06T02:40:57.175Z,100.00
2023-02-06T02:42:02.883Z,100.00
2023-02-06T02:43:28.572Z,100.00
2023-02-06T02:44:33.899Z,100.00
2023-02-06T02:45:52.041Z,100.00
2023-02-06T02:46:58.160Z,100.00
2023-02-06T02:48:11.274Z,100.00
2023-02-06T02:49:17.185Z,100.00
2023-02-06T02:50:20.370Z,100.00
2023-02-06T02:51:24.295Z,100.00
2023-02-06T02:52:27.593Z,100.00
2023-02-06T02:53:32.034Z,100.00
2023-02-06T02:54:37.701Z,100.00
2023-02-06T02:55:41.268Z,100.00
2023-02-06T02:56:44.836Z,100.00
2023-02-06T02:57:49.501Z,100.00
2023-02-06T02:58:53.592Z,100.00
2023-02-06T03:00:00.175Z,100.00
2023-02-06T03:01:07.351Z,100.00
2023-02-06T03:02:13.780Z,100.00
2023-02-06T03:03:20.801Z,100.00
2023-02-06T03:04:28.017Z,100.00
2023-02-06T03:05:34.769Z,100.00
2023-02-06T03:06:44.713Z,100.00
2023-02-06T03:07:51.333Z,100.00
2023-02-06T03:09:14.464Z,100.00
2023-02-06T03:10:29.159Z,100.00
2023-02-06T03:11:31.824Z,100.00
2023-02-06T03:12:38.987Z,100.00
2023-02-06T03:13:44.997Z,100.00
2023-02-06T03:14:56.334Z,100.00
2023-02-06T03:16:01.870Z,100.00
2023-02-06T03:17:07.210Z,100.00
2023-02-06T03:18:13.144Z,100.00
2023-02-06T03:19:21.013Z,100.00
2023-02-06T03:20:25.442Z,100.00
2023-02-06T03:21:30.211Z,100.00
2023-02-06T03:22:36.959Z,100.00
2023-02-06T03:23:43.281Z,100.00
2023-02-06T03:24:49.317Z,100.00
2023-02-06T03:25:54.468Z,100.00
2023-02-06T03:27:01.542Z,100.00
2023-02-06T03:28:07.024Z,100.00
2023-02-06T03:29:12.302Z,100.00
2023-02-06T03:30:19.100Z,100.00
2023-02-06T03:31:23.831Z,100.00
2023-02-06T03:32:29.611Z,100.00
2023-02-06T03:33:34.518Z,100.00
2023-02-06T03:34:42.552Z,100.00
2023-02-06T03:35:46.330Z,100.00
2023-02-06T03:36:49.469Z,100.00
2023-02-06T03:37:53.710Z,100.00
2023-02-06T03:38:56.994Z,100.00
2023-02-06T03:40:01.554Z,100.00
2023-02-06T03:41:10.607Z,100.00
2023-02-06T03:42:17.131Z,100.00
2023-02-06T03:43:20.960Z,100.00
2023-02-06T03:44:26.110Z,100.00
2023-02-06T03:45:31.683Z,100.00
2023-02-06T03:46:37.610Z,100.00
2023-02-06T03:47:43.669Z,100.00
2023-02-06T03:48:48.800Z,100.00
2023-02-06T03:49:53.045Z,100.00
2023-02-06T03:50:58.178Z,100.00
2023-02-06T03:52:03.601Z,100.00
2023-02-06T03:53:07.636Z,100.00
2023-02-06T03:54:12.607Z,100.00
2023-02-06T03:55:20.553Z,100.00
2023-02-06T03:56:25.766Z,100.00
2023-02-06T03:57:31.266Z,100.00
2023-02-06T03:58:34.039Z,100.00
2023-02-06T03:59:37.246Z,100.00
2023-02-06T04:00:43.529Z,100.00
2023-02-06T04:01:51.479Z,100.00
2023-02-06T04:02:58.087Z,100.00
2023-02-06T04:04:06.950Z,100.00
2023-02-06T04:05:10.456Z,100.00
2023-02-06T04:06:14.022Z,99.08
2023-02-06T04:07:25.064Z,99.73
2023-02-06T04:08:28.466Z,100.00
2023-02-06T04:09:30.621Z,100.00
2023-02-06T04:10:34.112Z,100.00
2023-02-06T04:11:41.630Z,100.00
2023-02-06T04:12:45.092Z,100.00
2023-02-06T04:13:48.496Z,100.00
2023-02-06T04:14:52.936Z,100.00
2023-02-06T04:15:57.068Z,100.00
2023-02-06T04:17:00.285Z,100.00
2023-02-06T04:18:06.110Z,100.00
2023-02-06T04:19:10.328Z,100.00
2023-02-06T04:20:14.137Z,100.00
2023-02-06T04:21:17.732Z,100.00
2023-02-06T04:22:21.337Z,100.00
2023-02-06T04:23:25.886Z,100.00
2023-02-06T04:24:30.915Z,100.00
2023-02-06T04:25:35.793Z,100.00
2023-02-06T04:26:46.656Z,100.00
2023-02-06T04:27:50.524Z,100.00
2023-02-06T04:28:54.908Z,100.00
2023-02-06T04:29:59.066Z,100.00
2023-02-06T04:31:02.438Z,100.00
2023-02-06T04:32:06.801Z,99.89
2023-02-06T04:33:11.217Z,100.00
2023-02-06T04:34:15.035Z,100.00
2023-02-06T04:35:19.073Z,100.00
2023-02-06T04:36:21.733Z,100.00
2023-02-06T04:37:26.811Z,100.00
2023-02-06T04:38:29.987Z,100.00
2023-02-06T04:39:35.010Z,100.00
2023-02-06T04:40:39.086Z,100.00
2023-02-06T04:41:43.854Z,100.00
2023-02-06T04:42:47.369Z,100.00
2023-02-06T04:43:49.611Z,100.00
2023-02-06T04:44:55.380Z,100.00
2023-02-06T04:46:00.015Z,100.00
2023-02-06T04:47:04.095Z,100.00
2023-02-06T04:48:07.413Z,100.00
2023-02-06T04:49:11.243Z,100.00
2023-02-06T04:50:14.524Z,100.00
2023-02-06T04:51:18.833Z,100.00
2023-02-06T04:52:23.187Z,100.00
2023-02-06T04:53:27.650Z,100.00
2023-02-06T04:54:32.702Z,100.00
2023-02-06T04:55:40.401Z,100.00
2023-02-06T04:56:44.830Z,100.00
2023-02-06T04:57:48.988Z,100.00
2023-02-06T04:58:52.259Z,100.00
2023-02-06T04:59:54.525Z,100.00
2023-02-06T05:00:58.850Z,100.00
2023-02-06T05:02:02.377Z,100.00
2023-02-06T05:03:05.637Z,100.00
2023-02-06T05:04:10.238Z,100.00
2023-02-06T05:05:13.707Z,100.00
2023-02-06T05:06:17.631Z,100.00
2023-02-06T05:07:21.236Z,100.00
2023-02-06T05:08:23.588Z,100.00
2023-02-06T05:09:28.873Z,100.00
2023-02-06T05:10:32.296Z,100.00
2023-02-06T05:11:34.521Z,100.00
2023-02-06T05:12:39.803Z,100.00
2023-02-06T05:13:43.411Z,100.00
2023-02-06T05:14:47.760Z,100.00
2023-02-06T05:15:51.168Z,100.00
2023-02-06T05:16:54.446Z,100.00
2023-02-06T05:17:57.953Z,100.00
2023-02-06T05:19:01.249Z,100.00
2023-02-06T05:20:05.197Z,100.00
2023-02-06T05:21:09.095Z,100.00
2023-02-06T05:22:15.105Z,100.00
2023-02-06T05:23:18.217Z,100.00
2023-02-06T05:24:22.613Z,100.00
2023-02-06T05:25:25.686Z,100.00
2023-02-06T05:26:29.124Z,100.00
2023-02-06T05:27:33.987Z,100.00
2023-02-06T05:28:37.289Z,100.00
2023-02-06T05:29:41.100Z,100.00
2023-02-06T05:30:44.534Z,100.00
2023-02-06T05:31:47.693Z,100.00
2023-02-06T05:32:55.264Z,100.00
2023-02-06T05:33:58.766Z,100.00
2023-02-06T05:35:03.964Z,100.00
2023-02-06T05:36:07.973Z,100.00
2023-02-06T05:37:11.308Z,100.00
2023-02-06T05:38:13.527Z,100.00
2023-02-06T05:39:16.918Z,100.00
2023-02-06T05:40:20.148Z,100.00
2023-02-06T05:41:25.953Z,99.37
2023-02-06T05:42:29.124Z,99.11
2023-02-06T05:43:34.398Z,98.33
2023-02-06T05:44:37.577Z,98.26
2023-02-06T05:45:41.712Z,98.87
2023-02-06T05:46:45.006Z,99.52
2023-02-06T05:47:48.516Z,99.41
2023-02-06T05:48:52.032Z,99.81
2023-02-06T05:49:56.170Z,100.00
2023-02-06T05:50:59.376Z,100.00
2023-02-06T05:52:02.657Z,100.00
2023-02-06T05:53:07.778Z,100.00
2023-02-06T05:54:11.224Z,99.98
2023-02-06T05:55:14.506Z,99.81
2023-02-06T05:56:17.909Z,98.78
2023-02-06T05:57:22.651Z,99.08
2023-02-06T05:58:26.009Z,98.44
2023-02-06T05:59:30.127Z,97.88
2023-02-06T06:00:36.747Z,98.85
2023-02-06T06:01:40.048Z,98.72
2023-02-06T06:02:43.548Z,98.17
2023-02-06T06:03:46.976Z,98.16
2023-02-06T06:04:51.616Z,98.21
2023-02-06T06:05:55.993Z,97.40
2023-02-06T06:07:00.108Z,96.48
2023-02-06T06:08:02.541Z,96.46
2023-02-06T06:09:06.359Z,97.42
2023-02-06T06:10:10.488Z,97.02
2023-02-06T06:11:13.805Z,96.60
2023-02-06T06:12:17.011Z,96.08
2023-02-06T06:13:20.208Z,94.57
2023-02-06T06:14:27.986Z,94.59
2023-02-06T06:15:31.177Z,94.61
2023-02-06T06:16:34.364Z,93.64
2023-02-06T06:17:37.111Z,93.36
2023-02-06T06:18:39.468Z,93.44
2023-02-06T06:19:42.823Z,93.96
2023-02-06T06:20:46.187Z,93.71
2023-02-06T06:21:49.796Z,94.11
2023-02-06T06:22:53.171Z,93.73
2023-02-06T06:23:57.937Z,93.81
2023-02-06T06:25:01.112Z,95.29
2023-02-06T06:26:06.093Z,94.96
2023-02-06T06:27:10.264Z,93.32
2023-02-06T06:28:13.820Z,92.78
2023-02-06T06:29:17.156Z,92.35
2023-02-06T06:30:19.374Z,92.64
2023-02-06T06:31:21.840Z,93.26
2023-02-06T06:32:25.767Z,92.12
2023-02-06T06:33:29.057Z,91.56
2023-02-06T06:34:32.464Z,90.98
2023-02-06T06:35:36.593Z,91.35
2023-02-06T06:36:39.878Z,91.84
2023-02-06T06:37:43.183Z,91.04
2023-02-06T06:38:47.105Z,92.74
2023-02-06T06:39:50.506Z,93.09
2023-02-06T06:40:53.797Z,93.92
2023-02-06T06:41:57.097Z,94.03
2023-02-06T06:43:02.369Z,92.95
2023-02-06T06:44:05.644Z,92.35
2023-02-06T06:45:08.032Z,91.90
2023-02-06T06:46:12.582Z,91.44
2023-02-06T06:47:15.987Z,92.45
2023-02-06T06:48:20.634Z,93.07
2023-02-06T06:49:28.230Z,92.02
2023-02-06T06:50:31.926Z,92.08
2023-02-06T06:51:35.326Z,91.41
2023-02-06T06:52:40.491Z,90.72
2023-02-06T06:53:44.019Z,90.30
2023-02-06T06:54:47.188Z,89.75
2023-02-06T06:55:52.474Z,91.21
2023-02-06T06:56:56.094Z,90.15
2023-02-06T06:57:59.340Z,88.99
2023-02-06T06:59:02.790Z,88.63
2023-02-06T07:00:08.032Z,88.99
2023-02-06T07:01:10.654Z,90.66
2023-02-06T07:02:16.358Z,90.14
2023-02-06T07:03:20.111Z,89.82
2023-02-06T07:04:24.620Z,88.16
2023-02-06T07:05:28.123Z,87.65
2023-02-06T07:06:34.417Z,86.99
2023-02-06T07:07:38.450Z,87.22
2023-02-06T07:08:44.138Z,87.13
2023-02-06T07:09:47.643Z,85.52
2023-02-06T07:10:50.964Z,84.43
2023-02-06T07:11:54.064Z,84.94
2023-02-06T07:12:57.533Z,85.34
2023-02-06T07:14:02.124Z,85.24
2023-02-06T07:15:06.438Z,83.94
2023-02-06T07:16:10.102Z,82.57
2023-02-06T07:17:14.804Z,81.32
2023-02-06T07:18:18.117Z,82.51
2023-02-06T07:19:23.278Z,82.80
2023-02-06T07:20:27.822Z,83.27
2023-02-06T07:21:32.999Z,83.84
2023-02-06T07:22:37.542Z,84.86
2023-02-06T07:23:40.312Z,84.87
2023-02-06T07:24:45.800Z,83.66
2023-02-06T07:25:49.544Z,82.36
2023-02-06T07:26:53.003Z,82.16
2023-02-06T07:27:56.594Z,82.58
2023-02-06T07:28:59.297Z,83.85
2023-02-06T07:30:06.216Z,84.18
2023-02-06T07:31:10.315Z,84.15
2023-02-06T07:32:12.850Z,84.04
2023-02-06T07:33:17.281Z,84.38
2023-02-06T07:34:20.687Z,84.18
2023-02-06T07:35:24.000Z,83.50
2023-02-06T07:36:26.236Z,83.07
2023-02-06T07:37:29.541Z,83.44
2023-02-06T07:38:34.813Z,84.00
2023-02-06T07:39:38.223Z,83.42
2023-02-06T07:40:45.660Z,82.80
2023-02-06T07:41:48.718Z,83.73
2023-02-06T07:42:52.498Z,83.84
2023-02-06T07:43:59.658Z,83.41
2023-02-06T07:45:04.105Z,83.13
2023-02-06T07:46:06.401Z,82.65
2023-02-06T07:47:11.080Z,83.50
2023-02-06T07:48:15.366Z,82.20
2023-02-06T07:49:19.700Z,82.40
2023-02-06T07:50:22.798Z,82.91
2023-02-06T07:51:25.331Z,83.28
2023-02-06T07:52:29.598Z,82.04
2023-02-06T07:53:33.402Z,80.98
2023-02-06T07:54:36.696Z,81.10
2023-02-06T07:55:39.813Z,79.68
2023-02-06T07:56:43.807Z,78.81
2023-02-06T07:57:47.049Z,78.25
2023-02-06T07:58:49.772Z,78.52
2023-02-06T07:59:53.087Z,78.76
2023-02-06T08:00:56.904Z,78.12
2023-02-06T08:02:01.714Z,78.35
2023-02-06T08:03:05.776Z,78.12
2023-02-06T08:04:09.245Z,78.44
2023-02-06T08:05:12.683Z,78.56
2023-02-06T08:06:17.052Z,78.29
2023-02-06T08:07:19.278Z,76.53
2023-02-06T08:08:28.064Z,76.28
2023-02-06T08:09:33.590Z,74.83
2023-02-06T08:10:38.529Z,74.45
2023-02-06T08:11:42.307Z,72.89
2023-02-06T08:12:46.398Z,72.42
2023-02-06T08:13:52.722Z,73.13
2023-02-06T08:14:56.029Z,74.00
2023-02-06T08:15:59.535Z,73.69
2023-02-06T08:17:05.799Z,73.08
2023-02-06T08:18:10.099Z,72.51
2023-02-06T08:19:12.232Z,73.44
2023-02-06T08:20:15.530Z,72.55
2023-02-06T08:21:20.401Z,72.48
2023-02-06T08:22:25.583Z,72.56
2023-02-06T08:23:29.500Z,71.54
2023-02-06T08:24:32.789Z,71.31
2023-02-06T08:25:36.205Z,71.47
2023-02-06T08:26:40.153Z,72.00
2023-02-06T08:27:44.080Z,72.96
2023-02-06T08:28:48.062Z,72.18
2023-02-06T08:29:53.547Z,71.23
2023-02-06T08:30:57.243Z,69.69
2023-02-06T08:31:59.702Z,70.02
2023-02-06T08:33:03.133Z,70.75
2023-02-06T08:34:07.401Z,71.94
2023-02-06T08:35:10.996Z,71.89
2023-02-06T08:36:16.574Z,72.58
2023-02-06T08:37:19.754Z,72.25
2023-02-06T08:38:23.008Z,71.87
2023-02-06T08:39:26.242Z,72.10
2023-02-06T08:40:29.746Z,72.47
2023-02-06T08:41:41.189Z,70.48
2023-02-06T08:42:43.461Z,70.10
2023-02-06T08:43:51.274Z,70.81
2023-02-06T08:44:55.815Z,69.80
2023-02-06T08:46:01.352Z,70.40
2023-02-06T08:47:10.194Z,70.26
2023-02-06T08:48:10.377Z,69.74
2023-02-06T08:49:18.795Z,68.57
2023-02-06T08:50:22.599Z,67.79
2023-02-06T08:51:28.075Z,68.05
2023-02-06T08:52:31.329Z,67.13
2023-02-06T08:53:35.218Z,66.75
2023-02-06T08:54:40.202Z,66.22
2023-02-06T08:55:43.180Z,67.37
2023-02-06T08:56:46.554Z,67.93
2023-02-06T08:57:49.849Z,67.49
2023-02-06T08:58:54.218Z,66.82
2023-02-06T08:59:56.558Z,66.05
2023-02-06T09:01:00.468Z,65.95
2023-02-06T09:02:06.544Z,65.46
2023-02-06T09:03:10.882Z,66.81
2023-02-06T09:04:14.537Z,66.51
2023-02-06T09:05:18.181Z,66.24
2023-02-06T09:06:22.287Z,64.93
2023-02-06T09:07:26.934Z,63.74
2023-02-06T09:08:32.223Z,63.74
2023-02-06T09:09:34.483Z,64.26
2023-02-06T09:10:37.874Z,63.86
2023-02-06T09:11:41.682Z,62.27
2023-02-06T09:12:44.787Z,62.91
2023-02-06T09:13:49.660Z,62.17
2023-02-06T09:14:51.998Z,62.42
2023-02-06T09:15:57.060Z,60.97
2023-02-06T09:17:01.419Z,60.41
2023-02-06T09:18:05.694Z,59.89
2023-02-06T09:19:09.041Z,60.17
2023-02-06T09:20:13.492Z,60.56
2023-02-06T09:21:18.352Z,60.37
2023-02-06T09:22:21.950Z,59.62
2023-02-06T09:23:26.614Z,59.51
2023-02-06T09:24:32.778Z,60.36
2023-02-06T09:25:36.982Z,61.31
2023-02-06T09:26:58.082Z,60.38
2023-02-06T09:27:47.740Z,57.77
2023-02-06T09:28:54.896Z,56.41
2023-02-06T09:29:58.287Z,56.59
2023-02-06T09:31:01.914Z,56.35
2023-02-06T09:32:04.351Z,57.70
2023-02-06T09:33:08.497Z,58.57
2023-02-06T09:34:13.047Z,58.39
2023-02-06T09:35:16.278Z,58.93
2023-02-06T09:36:22.460Z,59.25
2023-02-06T09:37:25.858Z,60.70
2023-02-06T09:38:29.248Z,59.73
2023-02-06T09:39:32.972Z,59.92
2023-02-06T09:40:36.571Z,60.10
2023-02-06T09:41:46.408Z,58.59
2023-02-06T09:42:52.344Z,56.52
2023-02-06T09:43:56.701Z,56.74
2023-02-06T09:45:09.989Z,56.33
2023-02-06T09:46:14.818Z,57.58
2023-02-06T09:47:24.634Z,57.92
2023-02-06T09:48:31.302Z,58.71
2023-02-06T09:49:44.405Z,59.53
2023-02-06T09:50:53.635Z,61.82
2023-02-06T09:52:08.050Z,62.79
2023-02-06T09:53:13.408Z,61.83
2023-02-06T09:54:18.706Z,58.61
2023-02-06T09:55:40.430Z,56.56
2023-02-06T09:56:45.868Z,55.86
2023-02-06T09:58:08.843Z,54.74
2023-02-06T09:59:17.648Z,54.96
2023-02-06T10:00:26.151Z,55.00
2023-02-06T10:01:39.194Z,53.84
2023-02-06T10:02:53.103Z,52.92
2023-02-06T10:04:13.558Z,53.12
2023-02-06T10:05:21.009Z,52.56
2023-02-06T10:06:29.006Z,51.88
2023-02-06T10:07:42.441Z,52.27
2023-02-06T10:08:46.677Z,52.52
2023-02-06T10:10:02.400Z,51.06
2023-02-06T10:11:09.452Z,51.33
2023-02-06T10:12:19.096Z,50.94
2023-02-06T10:13:39.440Z,50.37
2023-02-06T10:14:51.299Z,50.34
2023-02-06T10:15:57.655Z,49.46
2023-02-06T10:17:05.935Z,50.36
2023-02-06T10:18:16.856Z,50.76
2023-02-06T10:19:37.275Z,49.29
2023-02-06T10:20:57.698Z,46.88
2023-02-06T10:22:02.270Z,47.33
2023-02-06T10:23:12.022Z,47.20
2023-02-06T10:24:18.345Z,46.59
2023-02-06T10:25:23.485Z,46.64
2023-02-06T10:26:29.337Z,47.35
2023-02-06T10:27:35.555Z,46.50
2023-02-06T10:28:41.881Z,47.77
2023-02-06T10:29:46.629Z,48.81
2023-02-06T10:30:55.637Z,50.26
2023-02-06T10:32:16.310Z,52.65
2023-02-06T10:33:25.988Z,53.05
2023-02-06T10:34:40.032Z,53.22
2023-02-06T10:35:45.530Z,54.36
2023-02-06T10:37:07.763Z,55.80
2023-02-06T10:38:29.077Z,55.83
2023-02-06T10:39:34.274Z,55.17
2023-02-06T10:40:43.001Z,54.81
2023-02-06T10:41:51.403Z,53.64
2023-02-06T10:43:05.876Z,52.21
2023-02-06T10:44:14.329Z,51.60
2023-02-06T10:45:31.489Z,51.00
2023-02-06T10:46:44.136Z,50.10
2023-02-06T10:47:51.651Z,49.67
2023-02-06T10:48:58.822Z,49.90
2023-02-06T10:50:10.372Z,50.14
2023-02-06T10:51:15.828Z,50.47
2023-02-06T10:52:21.998Z,50.55
2023-02-06T10:53:34.463Z,51.53
2023-02-06T10:54:40.776Z,50.34
2023-02-06T10:55:49.373Z,51.28
2023-02-06T10:56:54.576Z,51.63
2023-02-06T10:57:59.062Z,50.63
2023-02-06T10:59:04.228Z,51.12
2023-02-06T11:00:10.535Z,51.77
2023-02-06T11:01:25.445Z,51.46
2023-02-06T11:02:23.101Z,51.70
2023-02-06T11:03:27.409Z,52.39
2023-02-06T11:04:34.575Z,52.78
2023-02-06T11:05:39.075Z,53.50
2023-02-06T11:06:42.836Z,52.15
2023-02-06T11:07:47.789Z,51.63
2023-02-06T11:08:50.597Z,52.13
2023-02-06T11:09:55.446Z,52.47
2023-02-06T11:11:00.727Z,52.67
2023-02-06T11:12:06.721Z,52.52
2023-02-06T11:13:11.498Z,52.14
2023-02-06T11:14:16.883Z,51.71
2023-02-06T11:15:40.134Z,52.46
2023-02-06T11:16:44.770Z,52.39
2023-02-06T11:17:48.381Z,51.35
2023-02-06T11:18:52.024Z,52.42
2023-02-06T11:19:58.643Z,53.91
2023-02-06T11:21:02.862Z,53.00
2023-02-06T11:22:07.435Z,52.77
2023-02-06T11:23:19.394Z,52.29
2023-02-06T11:24:28.869Z,54.79
2023-02-06T11:25:35.199Z,51.98
2023-02-06T11:26:53.290Z,52.06
2023-02-06T11:28:00.339Z,51.43
2023-02-06T11:29:05.426Z,50.80
2023-02-06T11:30:10.908Z,51.13
2023-02-06T11:31:13.342Z,50.83
2023-02-06T11:32:38.718Z,51.83
2023-02-06T11:33:44.186Z,52.90
2023-02-06T11:35:06.016Z,52.65
2023-02-06T11:36:11.373Z,52.69
2023-02-06T11:37:16.386Z,52.89
2023-02-06T11:38:21.504Z,52.65
2023-02-06T11:39:32.289Z,52.85
2023-02-06T11:40:36.270Z,53.56
2023-02-06T11:41:39.882Z,52.71
2023-02-06T11:42:43.566Z,52.17
2023-02-06T11:43:48.741Z,52.37
2023-02-06T11:44:53.689Z,51.46
2023-02-06T11:46:11.404Z,51.60
2023-02-06T11:47:22.264Z,51.24
2023-02-06T11:48:30.064Z,51.47
2023-02-06T11:49:33.213Z,50.92
2023-02-06T11:50:38.766Z,52.07
2023-02-06T11:51:47.844Z,51.98
2023-02-06T11:52:55.936Z,53.90
2023-02-06T11:54:01.659Z,54.03
2023-02-06T11:55:04.110Z,54.37
2023-02-06T11:56:19.979Z,54.25
2023-02-06T11:57:27.320Z,54.03
2023-02-06T11:58:33.880Z,54.84
2023-02-06T11:59:38.048Z,53.60
2023-02-06T12:00:42.594Z,54.94
2023-02-06T12:01:47.511Z,54.97
2023-02-06T12:02:51.115Z,55.40
2023-02-06T12:03:56.806Z,55.87
2023-02-06T12:05:08.149Z,55.87
2023-02-06T12:06:16.979Z,56.64
2023-02-06T12:07:24.341Z,56.13
2023-02-06T12:08:31.187Z,56.96
2023-02-06T12:09:34.916Z,57.06
2023-02-06T12:10:39.148Z,57.48
2023-02-06T12:11:56.223Z,58.02
2023-02-06T12:13:03.915Z,57.64
2023-02-06T12:14:15.035Z,58.49
2023-02-06T12:15:46.899Z,57.81
2023-02-06T12:16:34.332Z,58.32
2023-02-06T12:17:41.816Z,57.53
2023-02-06T12:18:48.560Z,57.96
2023-02-06T12:19:58.681Z,58.27
2023-02-06T12:21:12.631Z,58.07
2023-02-06T12:22:20.824Z,57.41
2023-02-06T12:23:29.983Z,57.58
2023-02-06T12:24:36.500Z,57.79
2023-02-06T12:25:42.110Z,58.28
2023-02-06T12:26:46.131Z,59.26
2023-02-06T12:27:49.704Z,60.36
2023-02-06T12:28:57.815Z,61.48
2023-02-06T12:30:04.580Z,61.95
2023-02-06T12:31:12.416Z,62.31
2023-02-06T12:32:20.484Z,62.88
2023-02-06T12:33:39.507Z,64.31
2023-02-06T12:34:56.626Z,65.58
2023-02-06T12:36:12.652Z,66.53
2023-02-06T12:37:22.872Z,66.60
2023-02-06T12:38:42.788Z,67.85
2023-02-06T12:39:45.962Z,66.49
2023-02-06T12:40:51.144Z,67.35
2023-02-06T12:42:00.227Z,66.79
2023-02-06T12:43:04.507Z,66.96
2023-02-06T12:44:21.926Z,67.33
2023-02-06T12:45:39.017Z,67.77
2023-02-06T12:46:43.890Z,65.89
2023-02-06T12:47:49.042Z,66.50
2023-02-06T12:49:06.201Z,65.13
2023-02-06T12:50:18.373Z,63.54
2023-02-06T12:51:32.433Z,63.82
2023-02-06T12:52:39.284Z,62.92
2023-02-06T12:53:48.213Z,62.42
2023-02-06T12:54:56.538Z,62.32
2023-02-06T12:56:05.247Z,63.22
2023-02-06T12:57:16.687Z,62.87
2023-02-06T12:58:24.811Z,63.43
2023-02-06T12:59:57.202Z,64.12
2023-02-06T13:00:58.226Z,64.24
2023-02-06T13:02:02.579Z,64.57
2023-02-06T13:03:22.267Z,64.61
2023-02-06T13:04:31.022Z,65.39
2023-02-06T13:05:39.825Z,65.39
2023-02-06T13:06:46.310Z,65.65
2023-02-06T13:07:51.030Z,64.98
2023-02-06T13:09:01.841Z,64.80
2023-02-06T13:10:07.236Z,64.29
2023-02-06T13:11:11.986Z,64.08
2023-02-06T13:12:24.798Z,65.82
2023-02-06T13:13:29.991Z,64.99
2023-02-06T16:44:02.172Z,70.09
2023-02-06T16:45:18.778Z,70.71
2023-02-06T16:46:22.208Z,70.93
2023-02-06T16:47:27.880Z,71.02
2023-02-06T16:48:30.984Z,71.14
2023-02-06T16:49:33.418Z,71.12
2023-02-06T16:50:38.389Z,70.82
2023-02-06T16:51:43.181Z,70.95
2023-02-06T16:52:51.569Z,70.53
2023-02-06T16:53:58.348Z,70.75
2023-02-06T16:55:02.340Z,70.57
2023-02-06T16:56:07.201Z,70.78
2023-02-06T16:57:16.236Z,70.74
2023-02-06T16:58:21.524Z,70.07
2023-02-06T16:59:24.821Z,69.71
2023-02-06T17:00:31.652Z,69.19
2023-02-06T17:01:37.328Z,69.49
2023-02-06T17:02:42.339Z,69.08
2023-02-06T17:03:44.583Z,69.64
2023-02-06T17:04:48.568Z,69.92
2023-02-06T17:05:53.079Z,69.63
2023-02-06T17:06:58.547Z,70.25
2023-02-06T17:08:02.372Z,69.93
2023-02-06T17:09:09.289Z,68.77
2023-02-06T17:10:13.651Z,68.74
2023-02-06T17:11:17.059Z,67.91
2023-02-06T17:12:21.518Z,69.20
2023-02-06T17:13:25.321Z,69.19
2023-02-06T17:14:27.666Z,68.18
2023-02-06T17:15:31.873Z,68.42
2023-02-06T17:16:37.967Z,68.94
2023-02-06T17:18:54.756Z,67.62
2023-02-06T17:19:59.736Z,67.49
2023-02-06T17:21:04.009Z,68.57
2023-02-06T17:22:07.872Z,67.84
2023-02-06T17:23:11.478Z,67.77
2023-02-06T17:24:14.670Z,66.82
2023-02-06T17:25:17.036Z,66.62
2023-02-06T17:26:21.069Z,66.80
2023-02-06T17:27:24.365Z,66.45
2023-02-06T17:28:28.073Z,65.80